createdAt,value
2023-02-19T00:00:44.444Z,97951.75
2023-02-19T00:03:52.237Z,97961.50
2023-02-19T00:06:53.748Z,97970.44
2023-02-19T00:09:55.261Z,97948.25
2023-02-19T00:12:56.935Z,97959.50
2023-02-19T00:15:58.494Z,97934.69
2023-02-19T00:19:02.076Z,97934.03
2023-02-19T00:22:03.528Z,97933.69
2023-02-19T00:25:05.197Z,97941.28
2023-02-19T00:28:06.652Z,97933.00
2023-02-19T00:31:13.137Z,97939.75
2023-02-19T00:34:15.031Z,97962.75
2023-02-19T00:37:16.815Z,97938.94
2023-02-19T00:40:18.256Z,97929.69
2023-02-19T00:43:19.708Z,97923.22
2023-02-19T00:46:41.206Z,97926.22
2023-02-19T00:49:43.759Z,97935.31
2023-02-19T00:52:45.206Z,97934.66
2023-02-19T00:55:46.630Z,97930.19
2023-02-19T00:58:48.806Z,97925.72
2023-02-19T01:01:50.386Z,97926.53
2023-02-19T01:04:52.896Z,97921.25
2023-02-19T01:07:54.403Z,97912.66
2023-02-19T01:10:55.891Z,97906.53
2023-02-19T01:13:59.172Z,97912.16
2023-02-19T01:17:00.684Z,97902.19
2023-02-19T01:20:02.138Z,97892.94
2023-02-19T01:23:03.567Z,97900.72
2023-02-19T01:26:11.823Z,97908.81
2023-02-19T01:29:13.399Z,97921.50
2023-02-19T01:32:14.918Z,97919.03
2023-02-19T01:35:16.535Z,97892.75
2023-02-19T01:38:17.972Z,97880.34
2023-02-19T01:41:22.455Z,97885.13
2023-02-19T01:44:23.849Z,97878.69
2023-02-19T01:47:25.526Z,97875.22
2023-02-19T01:50:29.734Z,97856.22
2023-02-19T01:53:36.189Z,97861.50
2023-02-19T01:56:42.682Z,97864.16
2023-02-19T01:59:45.660Z,97871.22
2023-02-19T02:02:51.632Z,97897.00
2023-02-19T02:06:15.831Z,97884.28
2023-02-19T02:09:43.404Z,97882.97
2023-02-19T02:12:44.883Z,97866.13
2023-02-19T02:16:08.196Z,97872.88
2023-02-19T02:19:50.983Z,97887.91
2023-02-19T02:22:55.574Z,97884.59
2023-02-19T02:26:25.599Z,97889.69
2023-02-19T02:29:45.950Z,97910.19
2023-02-19T02:33:09.116Z,97886.03
2023-02-19T02:36:27.047Z,97897.91
2023-02-19T02:39:32.135Z,97892.78
2023-02-19T02:42:34.943Z,97897.75
2023-02-19T02:45:43.591Z,97895.41
2023-02-19T02:48:59.956Z,97896.22
2023-02-19T02:52:22.219Z,97923.66
2023-02-19T02:55:26.104Z,97909.59
2023-02-19T02:58:28.340Z,97906.28
2023-02-19T03:02:08.336Z,97902.97
2023-02-19T03:05:34.185Z,97902.69
2023-02-19T03:09:08.604Z,97892.72
2023-02-19T03:12:36.944Z,97904.56
2023-02-19T03:16:24.799Z,97914.28
2023-02-19T03:19:28.668Z,97887.53
2023-02-19T03:22:34.534Z,97892.47
2023-02-19T03:25:56.248Z,97855.97
2023-02-19T03:29:23.679Z,97824.81
2023-02-19T03:33:03.248Z,97872.88
2023-02-19T03:36:08.138Z,97860.66
2023-02-19T03:39:17.730Z,97870.41
2023-02-19T03:42:48.566Z,97881.47
2023-02-19T03:45:51.165Z,97880.19
2023-02-19T03:49:10.961Z,97870.28
2023-02-19T03:52:18.299Z,97864.19
2023-02-19T03:55:52.469Z,97880.06
2023-02-19T03:59:14.699Z,97876.59
2023-02-19T04:02:39.380Z,97875.44
2023-02-19T04:05:47.274Z,97894.59
2023-02-19T04:08:54.909Z,97889.31
2023-02-19T04:11:58.641Z,97901.84
2023-02-19T04:15:06.447Z,97892.13
2023-02-19T04:18:12.539Z,97891.28
2023-02-19T04:21:15.576Z,97879.09
2023-02-19T04:24:25.253Z,97874.94
2023-02-19T04:27:26.977Z,97870.81
2023-02-19T04:30:28.647Z,97873.97
2023-02-19T04:33:30.237Z,97867.84
2023-02-19T04:36:32.896Z,97870.50
2023-02-19T04:39:34.784Z,97860.09
2023-02-19T04:42:36.278Z,97856.94
2023-02-19T04:45:38.844Z,97859.94
2023-02-19T04:48:40.324Z,97873.28
2023-02-19T04:51:42.239Z,97869.66
2023-02-19T04:54:43.709Z,97867.16
2023-02-19T04:57:45.190Z,97877.72
2023-02-19T05:00:46.705Z,97893.06
2023-02-19T05:03:48.206Z,97879.19
2023-02-19T05:06:50.322Z,97882.16
2023-02-19T05:09:51.885Z,97894.50
2023-02-19T05:12:57.606Z,97908.72
2023-02-19T05:16:02.051Z,97893.16
2023-02-19T05:19:03.715Z,97889.84
2023-02-19T05:22:05.260Z,97925.50
2023-02-19T05:25:06.885Z,97904.38
2023-02-19T05:28:17.123Z,97971.88
2023-02-19T05:31:19.315Z,97907.97
2023-02-19T05:34:20.882Z,97925.94
2023-02-19T05:37:22.577Z,97937.66
2023-02-19T05:40:23.997Z,97921.44
2023-02-19T05:43:25.484Z,97937.56
2023-02-19T05:46:32.393Z,97925.66
2023-02-19T05:49:33.926Z,97935.84
2023-02-19T05:52:35.373Z,97941.13
2023-02-19T05:55:36.908Z,97928.69
2023-02-19T05:58:38.358Z,97942.66
2023-02-19T06:01:39.912Z,97938.34
2023-02-19T06:04:41.348Z,97922.50
2023-02-19T06:07:43.006Z,97940.31
2023-02-19T06:10:44.461Z,97964.22
2023-02-19T06:13:46.567Z,97945.91
2023-02-19T06:16:48.033Z,97977.56
2023-02-19T06:19:49.467Z,97974.09
2023-02-19T06:22:51.862Z,97974.94
2023-02-19T06:25:53.325Z,97976.72
2023-02-19T06:28:54.835Z,97974.41
2023-02-19T06:31:56.441Z,97980.66
2023-02-19T06:34:57.985Z,97972.75
2023-02-19T06:37:59.519Z,97982.16
2023-02-19T06:41:02.293Z,97980.03
2023-02-19T06:44:03.866Z,97982.53
2023-02-19T06:47:05.373Z,98002.81
2023-02-19T06:50:07.009Z,97992.28
2023-02-19T06:53:09.115Z,98007.28
2023-02-19T06:56:30.686Z,98007.56
2023-02-19T06:59:32.143Z,98001.47
2023-02-19T07:02:33.604Z,98015.19
2023-02-19T07:05:35.076Z,98018.50
2023-02-19T07:08:36.652Z,98015.88
2023-02-19T07:11:39.377Z,98019.47
2023-02-19T07:14:40.856Z,98012.56
2023-02-19T07:17:42.329Z,98026.72
2023-02-19T07:20:43.793Z,98035.47
2023-02-19T07:23:46.002Z,98047.41
2023-02-19T07:26:47.527Z,98054.47
2023-02-19T07:29:49.125Z,98047.53
2023-02-19T07:32:50.622Z,98056.56
2023-02-19T07:35:52.327Z,98052.81
2023-02-19T07:38:58.215Z,98058.63
2023-02-19T07:41:59.711Z,98073.63
2023-02-19T07:45:01.886Z,98078.22
2023-02-19T07:48:03.520Z,98068.34
2023-02-19T07:51:06.853Z,98090.22
2023-02-19T07:54:08.508Z,98084.81
2023-02-19T07:57:10.055Z,98094.63
2023-02-19T08:00:12.017Z,98092.44
2023-02-19T08:03:16.612Z,98098.72
2023-02-19T08:06:18.064Z,98105.94
2023-02-19T08:09:19.496Z,98109.47
2023-02-19T08:12:39.361Z,98111.16
2023-02-19T08:15:40.901Z,98122.63
2023-02-19T08:18:42.362Z,98119.06
2023-02-19T08:21:43.860Z,98126.22
2023-02-19T08:24:45.365Z,98144.19
2023-02-19T08:27:46.801Z,98141.06
2023-02-19T08:30:49.060Z,98135.56
2023-02-19T08:33:50.614Z,98133.63
2023-02-19T08:36:52.075Z,98139.03
2023-02-19T08:39:53.518Z,98149.44
2023-02-19T08:42:55.035Z,98148.44
2023-02-19T08:45:56.627Z,98150.75
2023-02-19T08:48:58.227Z,98143.94
2023-02-19T08:51:59.878Z,98142.09
2023-02-19T08:55:02.384Z,98151.78
2023-02-19T08:58:04.144Z,98160.09
2023-02-19T09:01:15.595Z,98145.13
2023-02-19T09:04:17.275Z,98151.25
2023-02-19T09:07:19.240Z,98154.03
2023-02-19T09:10:20.972Z,98161.19
2023-02-19T09:13:22.460Z,98162.28
2023-02-19T09:16:23.970Z,98170.56
2023-02-19T09:19:26.306Z,98167.75
2023-02-19T09:22:27.811Z,98166.84
2023-02-19T09:25:29.372Z,98172.38
2023-02-19T09:28:30.768Z,98176.81
2023-02-19T09:31:35.207Z,98178.19
2023-02-19T09:34:37.856Z,98173.84
2023-02-19T09:37:39.306Z,98181.38
2023-02-19T09:40:40.972Z,98180.16
2023-02-19T09:43:43.708Z,98165.59
2023-02-19T09:46:51.178Z,98156.72
2023-02-19T09:50:12.554Z,98157.31
2023-02-19T09:53:41.802Z,98150.25
2023-02-19T09:56:43.504Z,98156.56
2023-02-19T09:59:51.834Z,98150.25
2023-02-19T10:03:17.167Z,98141.31
2023-02-19T10:06:24.528Z,98151.41
2023-02-19T10:09:27.168Z,98147.94
2023-02-19T10:12:31.027Z,98163.59
2023-02-19T10:15:38.830Z,98156.50
2023-02-19T10:18:42.920Z,98150.38
2023-02-19T10:21:44.519Z,98154.34
2023-02-19T10:24:52.146Z,98147.22
2023-02-19T10:27:53.758Z,98141.91
2023-02-19T10:31:00.971Z,98162.31
2023-02-19T10:34:02.872Z,98157.72
2023-02-19T10:37:04.551Z,98156.00
2023-02-19T10:40:15.248Z,98161.31
2023-02-19T10:43:31.101Z,98167.94
2023-02-19T10:46:41.247Z,98173.91
2023-02-19T10:49:46.338Z,98187.34
2023-02-19T10:52:53.136Z,98186.03
2023-02-19T10:56:08.088Z,98190.81
2023-02-19T10:59:18.659Z,98199.91
2023-02-19T11:02:21.652Z,98202.69
2023-02-19T11:05:23.701Z,98207.16
2023-02-19T11:08:25.328Z,98202.31
2023-02-19T11:11:39.004Z,98206.84
2023-02-19T11:14:44.913Z,98198.47
2023-02-19T11:17:58.872Z,98190.38
2023-02-19T11:21:25.125Z,98193.19
2023-02-19T11:24:34.776Z,98207.50
2023-02-19T11:27:52.908Z,98196.41
2023-02-19T11:30:54.478Z,98204.09
2023-02-19T11:34:14.117Z,98197.09
2023-02-19T11:37:17.729Z,98191.84
2023-02-19T11:40:21.575Z,98188.16
2023-02-19T11:43:35.602Z,98177.53
2023-02-19T11:46:51.183Z,98167.25
2023-02-19T11:50:02.931Z,98173.16
2023-02-19T11:53:28.699Z,98170.59
2023-02-19T11:56:36.252Z,98167.22
2023-02-19T11:59:48.000Z,98172.38
2023-02-19T12:03:04.387Z,98169.44
2023-02-19T12:06:22.995Z,98163.19
2023-02-19T12:09:42.183Z,98162.31
2023-02-19T12:12:56.030Z,98162.81
2023-02-19T12:16:09.012Z,98159.97
2023-02-19T12:19:35.523Z,98155.28
2023-02-19T12:22:58.167Z,98163.50
2023-02-19T12:25:59.639Z,98162.56
2023-02-19T12:29:24.989Z,98159.72
2023-02-19T12:32:35.661Z,98166.13
2023-02-19T12:35:55.524Z,98170.19
2023-02-19T12:39:08.262Z,98169.44
2023-02-19T12:42:36.090Z,98183.41
2023-02-19T12:45:56.192Z,98183.50
2023-02-19T12:49:05.677Z,98179.00
2023-02-19T12:52:16.100Z,98186.50
2023-02-19T12:55:32.478Z,98168.13
2023-02-19T12:58:48.714Z,98150.94
2023-02-19T13:02:06.154Z,98151.91
2023-02-19T13:05:28.200Z,98153.09
2023-02-19T13:08:48.846Z,98143.34
2023-02-19T13:12:08.111Z,98164.44
2023-02-19T13:15:41.781Z,98155.81
2023-02-19T13:18:48.432Z,98148.72
2023-02-19T13:22:21.779Z,98132.81
2023-02-19T13:25:44.814Z,98145.91
2023-02-19T13:29:11.221Z,98151.22
2023-02-19T13:32:39.378Z,98151.69
2023-02-19T13:35:56.047Z,98155.53
2023-02-19T13:38:59.627Z,98150.69
2023-02-19T13:42:01.783Z,98153.84
2023-02-19T13:45:06.281Z,98162.28
2023-02-19T13:48:32.338Z,98155.91
2023-02-19T13:51:33.732Z,98156.69
2023-02-19T13:54:40.009Z,98143.53
2023-02-19T13:57:41.696Z,98148.44
2023-02-19T14:00:53.801Z,98159.97
2023-02-19T14:04:16.861Z,98155.53
2023-02-19T14:07:18.296Z,98151.50
2023-02-19T14:10:57.773Z,98150.19
2023-02-19T14:14:06.370Z,98152.28
2023-02-19T14:17:29.596Z,98161.50
2023-02-19T14:20:45.351Z,98149.25
2023-02-19T14:23:56.707Z,98146.22
2023-02-19T14:27:00.090Z,98141.94
2023-02-19T14:30:02.753Z,98152.22
2023-02-19T14:33:10.945Z,98148.50
2023-02-19T14:36:12.692Z,98157.34
2023-02-19T14:39:22.725Z,98159.66
2023-02-19T14:42:32.442Z,98157.47
2023-02-19T14:45:43.236Z,98160.25
2023-02-19T14:48:47.881Z,98187.50
2023-02-19T14:51:54.069Z,98170.47
2023-02-19T14:55:00.280Z,98169.84
2023-02-19T14:58:10.307Z,98170.66
2023-02-19T15:01:28.426Z,98181.31
2023-02-19T15:04:35.917Z,98184.56
2023-02-19T15:07:37.394Z,98178.06
2023-02-19T15:10:42.119Z,98185.41
2023-02-19T15:13:45.714Z,98186.41
2023-02-19T15:16:47.797Z,98194.47
2023-02-19T15:19:49.321Z,98193.66
2023-02-19T15:22:52.389Z,98198.66
2023-02-19T15:25:53.964Z,98196.09
2023-02-19T15:29:03.981Z,98183.47
2023-02-19T15:32:26.673Z,98175.69
2023-02-19T15:35:29.857Z,98190.94
2023-02-19T15:38:33.180Z,98196.16
2023-02-19T15:41:35.226Z,98189.59
2023-02-19T15:45:01.349Z,98199.00
2023-02-19T15:48:15.764Z,98197.22
2023-02-19T15:51:24.363Z,98198.50
2023-02-19T15:54:52.797Z,98206.59
2023-02-19T15:58:04.457Z,98212.31
2023-02-19T16:01:30.048Z,98205.00
2023-02-19T16:04:34.304Z,98218.53
2023-02-19T16:07:36.086Z,98221.91
2023-02-19T16:10:38.358Z,98234.91
2023-02-19T16:13:39.842Z,98233.78
2023-02-19T16:16:42.765Z,98229.47
2023-02-19T16:19:56.806Z,98248.25
2023-02-19T16:23:02.605Z,98250.69
2023-02-19T16:26:04.345Z,98243.19
2023-02-19T16:29:21.043Z,98250.56
2023-02-19T16:32:22.629Z,98247.38
2023-02-19T16:35:39.792Z,98263.03
2023-02-19T16:38:41.258Z,98254.84
2023-02-19T16:41:46.565Z,98248.06
2023-02-19T16:44:48.134Z,98254.97
2023-02-19T16:47:51.178Z,98267.22
2023-02-19T16:50:52.848Z,98251.38
2023-02-19T16:53:54.284Z,98262.22
2023-02-19T16:56:55.762Z,98277.00
2023-02-19T16:59:57.256Z,98277.44
2023-02-19T17:03:03.025Z,98273.13
2023-02-19T17:06:04.857Z,98271.31
2023-02-19T17:09:08.416Z,98274.81
2023-02-19T17:12:15.504Z,98265.88
2023-02-19T17:15:16.957Z,98264.38
2023-02-19T17:18:18.523Z,98262.16
2023-02-19T17:21:23.607Z,98259.38
2023-02-19T17:24:25.226Z,98245.34
2023-02-19T17:27:26.689Z,98263.97
2023-02-19T17:30:30.875Z,98263.28
2023-02-19T17:33:32.371Z,98264.94
2023-02-19T17:36:33.810Z,98272.72
2023-02-19T17:39:35.416Z,98274.81
2023-02-19T17:42:36.871Z,98278.44
2023-02-19T17:45:38.684Z,98282.19
2023-02-19T17:48:40.093Z,98278.03
2023-02-19T17:51:41.556Z,98272.09
2023-02-19T17:54:43.903Z,98283.47
2023-02-19T17:57:59.456Z,98275.81
2023-02-19T18:01:01.121Z,98275.00
2023-02-19T18:04:02.674Z,98283.47
2023-02-19T18:07:04.316Z,98280.97
2023-02-19T18:10:07.132Z,98272.50
2023-02-19T18:13:09.365Z,98281.97
2023-02-19T18:16:11.103Z,98281.50
2023-02-19T18:19:12.561Z,98285.97
2023-02-19T18:22:13.998Z,98290.56
2023-02-19T18:25:16.910Z,98286.69
2023-02-19T18:28:18.391Z,98286.72
2023-02-19T18:31:19.856Z,98294.75
2023-02-19T18:34:21.942Z,98281.69
2023-02-19T18:37:25.603Z,98286.53
2023-02-19T18:40:27.290Z,98285.84
2023-02-19T18:43:28.781Z,98288.09
2023-02-19T18:46:32.062Z,98283.66
2023-02-19T18:49:33.877Z,98286.41
2023-02-19T18:52:35.614Z,98288.78
2023-02-19T18:55:37.056Z,98305.84
2023-02-19T18:58:38.520Z,98299.06
2023-02-19T19:01:40.051Z,98304.78
2023-02-19T19:04:43.028Z,98300.34
2023-02-19T19:07:44.494Z,98301.97
2023-02-19T19:10:45.950Z,98295.59
2023-02-19T19:13:47.374Z,98299.22
2023-02-19T19:16:48.901Z,98316.03
2023-02-19T19:19:50.493Z,98319.50
2023-02-19T19:22:52.999Z,98318.94
2023-02-19T19:25:54.736Z,98333.50
2023-02-19T19:28:56.604Z,98335.19
2023-02-19T19:31:58.388Z,98322.41
2023-02-19T19:35:00.132Z,98321.16
2023-02-19T19:38:01.620Z,98331.84
2023-02-19T19:41:03.826Z,98327.28
2023-02-19T19:44:06.537Z,98333.13
2023-02-19T19:47:08.054Z,98329.53
2023-02-19T19:50:10.385Z,98337.28
2023-02-19T19:53:11.921Z,98336.44
2023-02-19T19:56:13.438Z,98342.31
2023-02-19T19:59:16.560Z,98357.31
2023-02-19T20:02:19.077Z,98360.91
2023-02-19T20:05:20.725Z,98369.38
2023-02-19T20:08:22.325Z,98376.16
2023-02-19T20:11:23.996Z,98376.72
2023-02-19T20:14:25.847Z,98372.56
2023-02-19T20:17:28.842Z,98375.47
2023-02-19T20:20:30.558Z,98374.22
2023-02-19T20:23:32.962Z,98374.22
2023-02-19T20:26:34.611Z,98378.53
2023-02-19T20:29:36.449Z,98372.59
2023-02-19T20:32:37.898Z,98377.69
2023-02-19T20:35:39.378Z,98378.69
2023-02-19T20:38:43.373Z,98388.53
2023-02-19T20:41:49.691Z,98382.28
2023-02-19T20:44:51.164Z,98389.66
2023-02-19T20:47:52.644Z,98394.25
2023-02-19T20:50:59.292Z,98381.19
2023-02-19T20:54:00.874Z,98387.84
2023-02-19T20:57:05.154Z,98387.28
2023-02-19T21:00:08.210Z,98384.09
2023-02-19T21:03:11.540Z,98382.97
2023-02-19T21:06:13.237Z,98377.56
2023-02-19T21:09:15.006Z,98372.03
2023-02-19T21:12:16.572Z,98357.16
2023-02-19T21:15:18.393Z,98360.47
2023-02-19T21:18:20.017Z,98367.00
2023-02-19T21:21:25.301Z,98363.00
2023-02-19T21:24:26.828Z,98366.47
2023-02-19T21:27:28.314Z,98366.13
2023-02-19T21:30:29.801Z,98364.34
2023-02-19T21:33:31.306Z,98365.03
2023-02-19T21:36:32.994Z,98365.16
2023-02-19T21:39:34.671Z,98362.94
2023-02-19T21:42:36.158Z,98369.31
2023-02-19T21:45:37.629Z,98369.59
2023-02-19T21:48:39.186Z,98379.72
2023-02-19T21:51:42.908Z,98381.22
2023-02-19T21:54:45.876Z,98394.41
2023-02-19T21:57:48.245Z,98394.97
2023-02-19T22:00:49.838Z,98391.88
2023-02-19T22:03:51.648Z,98392.13
2023-02-19T22:06:56.975Z,98393.25
2023-02-19T22:09:58.522Z,98388.25
2023-02-19T22:12:59.989Z,98396.88
2023-02-19T22:16:02.161Z,98393.28
2023-02-19T22:19:03.930Z,98392.56
2023-02-19T22:22:05.508Z,98388.25
2023-02-19T22:25:07.128Z,98383.00
2023-02-19T22:28:08.585Z,98379.94
2023-02-19T22:31:10.126Z,98375.63
2023-02-19T22:34:11.785Z,98377.69
2023-02-19T22:37:13.277Z,98377.06
2023-02-19T22:40:14.785Z,98371.50
2023-02-19T22:43:19.409Z,98365.59
2023-02-19T22:46:26.152Z,98369.25
2023-02-19T22:49:27.627Z,98370.69
2023-02-19T22:52:29.166Z,98374.22
2023-02-19T22:55:30.996Z,98375.19
2023-02-19T22:58:32.433Z,98386.47
2023-02-19T23:01:33.919Z,98392.56
2023-02-19T23:04:35.491Z,98394.50
2023-02-19T23:07:37.080Z,98400.75
2023-02-19T23:10:40.840Z,98403.56
2023-02-19T23:13:42.503Z,98408.91
2023-02-19T23:16:44.509Z,98416.19
2023-02-19T23:19:46.143Z,98416.75
2023-02-19T23:22:47.823Z,98424.78
2023-02-19T23:25:49.320Z,98425.06
2023-02-19T23:28:50.850Z,98426.88
2023-02-19T23:31:53.544Z,98434.03
2023-02-19T23:34:55.153Z,98421.56
2023-02-19T23:37:56.721Z,98421.31
2023-02-19T23:40:58.844Z,98424.66
2023-02-19T23:44:00.299Z,98424.28
2023-02-19T23:47:01.778Z,98425.00
2023-02-19T23:50:03.290Z,98421.91
2023-02-19T23:53:04.859Z,98422.72
2023-02-19T23:56:07.002Z,98433.13
2023-02-19T23:59:08.505Z,98438.50
